createdAt,value
2022-12-29T00:18:29.365Z,19.4
2022-12-29T00:48:29.408Z,19.3
2022-12-29T01:18:29.217Z,19.3
2022-12-29T01:48:29.347Z,19.2
2022-12-29T02:18:29.148Z,19.2
2022-12-29T02:48:29.391Z,19.1
2022-12-29T03:18:29.393Z,19.0
2022-12-29T03:48:29.310Z,19.0
2022-12-29T04:18:29.093Z,19.0
2022-12-29T04:48:29.353Z,19.1
2022-12-29T05:18:29.395Z,19.3
2022-12-29T05:48:29.315Z,19.4
2022-12-29T06:18:28.897Z,19.4
2022-12-29T06:48:29.376Z,19.6
2022-12-29T07:18:29.299Z,19.7
2022-12-29T07:48:29.292Z,19.7
2022-12-29T08:18:29.223Z,19.8
2022-12-29T08:48:29.413Z,19.8
2022-12-29T09:18:29.190Z,19.8
2022-12-29T09:48:29.351Z,19.9
2022-12-29T10:18:29.393Z,19.9
2022-12-29T10:48:29.193Z,19.9
2022-12-29T11:18:29.182Z,20.0
2022-12-29T11:48:29.216Z,20.0
2022-12-29T12:18:29.213Z,20.0
2022-12-29T12:48:29.184Z,20.0
2022-12-29T13:18:29.203Z,20.0
2022-12-29T13:48:29.267Z,20.0
2022-12-29T14:18:29.164Z,20.1
2022-12-29T14:48:29.171Z,20.1
2022-12-29T15:18:29.194Z,20.2
2022-12-29T15:48:29.171Z,20.1
2022-12-29T16:18:29.172Z,20.2
2022-12-29T16:48:29.188Z,20.2
2022-12-29T17:18:29.188Z,20.2
2022-12-29T17:48:29.195Z,20.3
2022-12-29T18:18:29.161Z,20.3
2022-12-29T18:48:29.167Z,20.3
2022-12-29T19:18:29.190Z,20.3
2022-12-29T19:48:29.156Z,20.2
2022-12-29T20:18:29.169Z,20.1
2022-12-29T20:48:29.210Z,20.1
2022-12-29T21:18:29.309Z,20.0
2022-12-29T21:48:29.200Z,19.8
2022-12-29T22:18:29.162Z,19.7
2022-12-29T22:48:29.143Z,19.6
2022-12-29T23:18:29.174Z,19.5
2022-12-29T23:48:29.191Z,19.5
